sensor_id;sensor_type;location;lat;lon;timestamp;pressure;altitude;pressure_sealevel;temperature;humidity
56330;BME280;42236;48.058;10.632;2023-04-30T00:00:08;94879.97;;;10.48;83.10
56330;BME280;42236;48.058;10.632;2023-04-30T00:02:55;94879.28;;;10.39;83.99
56330;BME280;42236;48.058;10.632;2023-04-30T00:05:40;94887.38;;;10.39;83.90
56330;BME280;42236;48.058;10.632;2023-04-30T00:08:26;94886.94;;;10.37;83.94
56330;BME280;42236;48.058;10.632;2023-04-30T00:11:14;94883.31;;;10.33;84.27
56330;BME280;42236;48.058;10.632;2023-04-30T00:14:00;94876.38;;;10.32;83.98
56330;BME280;42236;48.058;10.632;2023-04-30T00:16:45;94878.91;;;10.28;84.48
56330;BME280;42236;48.058;10.632;2023-04-30T00:19:31;94882.69;;;10.15;85.84
56330;BME280;42236;48.058;10.632;2023-04-30T00:22:17;94878.06;;;10.15;85.03
56330;BME280;42236;48.058;10.632;2023-04-30T00:25:02;94876.63;;;10.18;84.86
56330;BME280;42236;48.058;10.632;2023-04-30T00:27:48;94868.06;;;10.16;85.42
56330;BME280;42236;48.058;10.632;2023-04-30T00:30:34;94870.81;;;10.07;85.88
56330;BME280;42236;48.058;10.632;2023-04-30T00:33:19;94863.38;;;9.92;87.11
56330;BME280;42236;48.058;10.632;2023-04-30T00:36:05;94864.25;;;9.83;87.90
56330;BME280;42236;48.058;10.632;2023-04-30T00:38:51;94874.66;;;9.85;86.96
56330;BME280;42236;48.058;10.632;2023-04-30T00:41:37;94878.13;;;9.86;86.62
56330;BME280;42236;48.058;10.632;2023-04-30T00:44:23;94882.44;;;9.87;86.79
56330;BME280;42236;48.058;10.632;2023-04-30T00:47:08;94890.63;;;9.90;86.77
56330;BME280;42236;48.058;10.632;2023-04-30T00:49:54;94892.88;;;9.88;87.26
56330;BME280;42236;48.058;10.632;2023-04-30T00:52:43;94893.88;;;9.83;87.04
56330;BME280;42236;48.058;10.632;2023-04-30T00:55:29;94894.50;;;9.80;87.64
56330;BME280;42236;48.058;10.632;2023-04-30T00:58:14;94901.16;;;9.83;87.04
56330;BME280;42236;48.058;10.632;2023-04-30T01:01:02;94910.94;;;9.88;87.11
56330;BME280;42236;48.058;10.632;2023-04-30T01:03:48;94901.75;;;9.89;86.87
56330;BME280;42236;48.058;10.632;2023-04-30T01:06:33;94899.53;;;9.91;86.78
56330;BME280;42236;48.058;10.632;2023-04-30T01:09:20;94901.59;;;9.85;87.17
56330;BME280;42236;48.058;10.632;2023-04-30T01:12:17;94897.00;;;9.86;87.97
56330;BME280;42236;48.058;10.632;2023-04-30T01:15:19;94901.59;;;9.85;87.62
56330;BME280;42236;48.058;10.632;2023-04-30T01:18:16;94904.78;;;9.87;87.38
56330;BME280;42236;48.058;10.632;2023-04-30T01:21:04;94907.28;;;9.71;88.54
56330;BME280;42236;48.058;10.632;2023-04-30T01:30:24;94887.50;;;9.67;88.81
56330;BME280;42236;48.058;10.632;2023-04-30T01:33:11;94885.91;;;9.66;89.01
56330;BME280;42236;48.058;10.632;2023-04-30T01:39:21;94895.50;;;9.55;90.08
56330;BME280;42236;48.058;10.632;2023-04-30T01:42:21;94909.47;;;9.48;91.23
56330;BME280;42236;48.058;10.632;2023-04-30T01:51:24;94920.91;;;9.66;89.45
56330;BME280;42236;48.058;10.632;2023-04-30T01:54:24;94911.72;;;9.67;89.11
56330;BME280;42236;48.058;10.632;2023-04-30T01:57:15;94913.09;;;9.73;88.50
56330;BME280;42236;48.058;10.632;2023-04-30T02:00:03;94902.13;;;9.78;87.90
56330;BME280;42236;48.058;10.632;2023-04-30T02:02:49;94915.47;;;9.75;88.55
56330;BME280;42236;48.058;10.632;2023-04-30T02:05:35;94913.25;;;9.77;88.08
56330;BME280;42236;48.058;10.632;2023-04-30T02:08:20;94914.09;;;9.69;89.14
56330;BME280;42236;48.058;10.632;2023-04-30T02:11:06;94917.13;;;9.67;88.83
56330;BME280;42236;48.058;10.632;2023-04-30T02:13:52;94907.63;;;9.61;89.08
56330;BME280;42236;48.058;10.632;2023-04-30T02:16:37;94919.09;;;9.58;89.17
56330;BME280;42236;48.058;10.632;2023-04-30T02:19:23;94908.03;;;9.51;89.69
56330;BME280;42236;48.058;10.632;2023-04-30T02:22:09;94908.97;;;9.55;89.26
56330;BME280;42236;48.058;10.632;2023-04-30T02:24:54;94905.53;;;9.46;90.08
56330;BME280;42236;48.058;10.632;2023-04-30T02:27:40;94909.94;;;9.50;89.73
56330;BME280;42236;48.058;10.632;2023-04-30T02:30:26;94910.13;;;9.45;90.17
56330;BME280;42236;48.058;10.632;2023-04-30T02:33:11;94904.31;;;9.34;91.18
56330;BME280;42236;48.058;10.632;2023-04-30T02:35:59;94897.09;;;9.26;91.83
56330;BME280;42236;48.058;10.632;2023-04-30T02:38:44;94903.75;;;9.20;91.91
56330;BME280;42236;48.058;10.632;2023-04-30T02:41:31;94899.03;;;9.17;91.87
56330;BME280;42236;48.058;10.632;2023-04-30T02:44:16;94889.91;;;9.09;92.36
56330;BME280;42236;48.058;10.632;2023-04-30T02:47:02;94892.72;;;9.13;91.91
56330;BME280;42236;48.058;10.632;2023-04-30T02:49:47;94897.63;;;9.11;91.71
56330;BME280;42236;48.058;10.632;2023-04-30T02:52:33;94893.38;;;9.10;92.26
56330;BME280;42236;48.058;10.632;2023-04-30T02:55:19;94897.03;;;9.05;92.65
56330;BME280;42236;48.058;10.632;2023-04-30T02:58:05;94889.16;;;9.00;92.93
56330;BME280;42236;48.058;10.632;2023-04-30T03:00:50;94876.38;;;8.88;94.36
56330;BME280;42236;48.058;10.632;2023-04-30T03:03:36;94874.66;;;8.84;94.07
56330;BME280;42236;48.058;10.632;2023-04-30T03:06:22;94883.06;;;8.82;94.26
56330;BME280;42236;48.058;10.632;2023-04-30T03:09:07;94874.53;;;8.80;94.68
56330;BME280;42236;48.058;10.632;2023-04-30T03:11:53;94875.00;;;8.82;93.93
56330;BME280;42236;48.058;10.632;2023-04-30T03:14:39;94880.97;;;8.88;93.69
56330;BME280;42236;48.058;10.632;2023-04-30T03:17:24;94879.69;;;8.94;93.11
56330;BME280;42236;48.058;10.632;2023-04-30T03:20:10;94886.66;;;8.86;94.33
56330;BME280;42236;48.058;10.632;2023-04-30T03:22:56;94893.00;;;8.82;94.83
56330;BME280;42236;48.058;10.632;2023-04-30T03:25:42;94890.66;;;8.80;95.07
56330;BME280;42236;48.058;10.632;2023-04-30T03:28:27;94894.72;;;8.86;94.32
56330;BME280;42236;48.058;10.632;2023-04-30T03:31:13;94889.06;;;8.79;95.87
56330;BME280;42236;48.058;10.632;2023-04-30T03:33:59;94886.84;;;8.81;94.64
56330;BME280;42236;48.058;10.632;2023-04-30T03:36:45;94889.88;;;8.80;95.14
56330;BME280;42236;48.058;10.632;2023-04-30T03:39:30;94893.53;;;8.75;95.73
56330;BME280;42236;48.058;10.632;2023-04-30T03:42:16;94902.06;;;8.77;95.22
56330;BME280;42236;48.058;10.632;2023-04-30T03:45:01;94894.44;;;8.79;95.32
56330;BME280;42236;48.058;10.632;2023-04-30T03:47:49;94890.66;;;8.80;94.83
56330;BME280;42236;48.058;10.632;2023-04-30T03:50:35;94892.41;;;8.76;95.72
56330;BME280;42236;48.058;10.632;2023-04-30T03:53:21;94894.81;;;8.69;96.20
56330;BME280;42236;48.058;10.632;2023-04-30T03:56:07;94886.41;;;8.70;96.42
56330;BME280;42236;48.058;10.632;2023-04-30T03:58:53;94893.06;;;8.64;96.83
56330;BME280;42236;48.058;10.632;2023-04-30T04:01:39;94880.59;;;8.60;97.41
56330;BME280;42236;48.058;10.632;2023-04-30T04:04:25;94895.16;;;8.59;97.64
56330;BME280;42236;48.058;10.632;2023-04-30T04:07:10;94882.38;;;8.56;97.61
56330;BME280;42236;48.058;10.632;2023-04-30T04:09:56;94875.22;;;8.60;96.71
56330;BME280;42236;48.058;10.632;2023-04-30T04:12:42;94871.56;;;8.64;96.37
56330;BME280;42236;48.058;10.632;2023-04-30T04:15:28;94871.44;;;8.61;96.07
56330;BME280;42236;48.058;10.632;2023-04-30T04:18:13;94872.06;;;8.58;96.72
56330;BME280;42236;48.058;10.632;2023-04-30T04:20:59;94884.75;;;8.48;97.72
56330;BME280;42236;48.058;10.632;2023-04-30T04:23:46;94889.00;;;8.49;96.67
56330;BME280;42236;48.058;10.632;2023-04-30T04:26:31;94896.91;;;8.54;96.19
56330;BME280;42236;48.058;10.632;2023-04-30T04:29:17;94895.50;;;8.48;96.90
56330;BME280;42236;48.058;10.632;2023-04-30T04:32:03;94902.75;;;8.48;97.20
56330;BME280;42236;48.058;10.632;2023-04-30T04:34:50;94900.88;;;8.48;96.57
56330;BME280;42236;48.058;10.632;2023-04-30T04:37:38;94904.03;;;8.50;96.73
56330;BME280;42236;48.058;10.632;2023-04-30T04:40:24;94907.81;;;8.58;95.81
56330;BME280;42236;48.058;10.632;2023-04-30T04:43:10;94919.66;;;8.57;96.39
56330;BME280;42236;48.058;10.632;2023-04-30T04:45:56;94912.38;;;8.58;96.49
56330;BME280;42236;48.058;10.632;2023-04-30T04:48:42;94918.88;;;8.57;96.54
56330;BME280;42236;48.058;10.632;2023-04-30T04:51:28;94914.34;;;8.48;97.34
56330;BME280;42236;48.058;10.632;2023-04-30T04:54:13;94917.31;;;8.56;96.17
56330;BME280;42236;48.058;10.632;2023-04-30T04:56:59;94911.28;;;8.59;96.19
56330;BME280;42236;48.058;10.632;2023-04-30T04:59:44;94910.81;;;8.65;95.50
56330;BME280;42236;48.058;10.632;2023-04-30T05:02:30;94905.09;;;8.67;95.53
56330;BME280;42236;48.058;10.632;2023-04-30T05:05:16;94914.41;;;8.69;95.39
56330;BME280;42236;48.058;10.632;2023-04-30T05:08:02;94916.78;;;8.71;95.28
56330;BME280;42236;48.058;10.632;2023-04-30T05:10:47;94922.94;;;8.71;95.03
56330;BME280;42236;48.058;10.632;2023-04-30T05:13:33;94925.81;;;8.75;94.93
56330;BME280;42236;48.058;10.632;2023-04-30T05:16:19;94923.41;;;8.82;94.48
56330;BME280;42236;48.058;10.632;2023-04-30T05:19:05;94914.69;;;8.85;94.40
56330;BME280;42236;48.058;10.632;2023-04-30T05:21:51;94924.97;;;8.92;94.08
56330;BME280;42236;48.058;10.632;2023-04-30T05:24:37;94920.38;;;8.92;93.97
56330;BME280;42236;48.058;10.632;2023-04-30T05:27:22;94924.13;;;9.00;93.86
56330;BME280;42236;48.058;10.632;2023-04-30T05:30:08;94913.25;;;9.26;93.76
56330;BME280;42236;48.058;10.632;2023-04-30T05:32:54;94920.38;;;9.52;93.13
56330;BME280;42236;48.058;10.632;2023-04-30T05:35:41;94916.47;;;9.70;92.72
56330;BME280;42236;48.058;10.632;2023-04-30T05:38:26;94930.06;;;9.95;92.45
56330;BME280;42236;48.058;10.632;2023-04-30T05:41:12;94931.09;;;10.23;91.41
56330;BME280;42236;48.058;10.632;2023-04-30T05:43:58;94923.56;;;10.38;90.61
56330;BME280;42236;48.058;10.632;2023-04-30T05:46:43;94927.06;;;10.51;90.56
56330;BME280;42236;48.058;10.632;2023-04-30T05:49:29;94929.28;;;10.70;88.62
56330;BME280;42236;48.058;10.632;2023-04-30T05:52:15;94934.94;;;11.01;89.60
56330;BME280;42236;48.058;10.632;2023-04-30T05:55:02;94922.28;;;11.51;88.54
56330;BME280;42236;48.058;10.632;2023-04-30T05:57:47;94921.44;;;11.75;86.46
56330;BME280;42236;48.058;10.632;2023-04-30T06:00:33;94922.78;;;11.93;86.49
56330;BME280;42236;48.058;10.632;2023-04-30T06:03:20;94926.06;;;12.27;85.73
56330;BME280;42236;48.058;10.632;2023-04-30T06:06:06;94927.91;;;12.23;80.68
56330;BME280;42236;48.058;10.632;2023-04-30T06:08:52;94933.81;;;12.13;84.23
56330;BME280;42236;48.058;10.632;2023-04-30T06:11:37;94930.94;;;12.22;83.68
56330;BME280;42236;48.058;10.632;2023-04-30T06:14:23;94934.50;;;12.38;82.39
56330;BME280;42236;48.058;10.632;2023-04-30T06:17:10;94920.50;;;12.64;82.12
56330;BME280;42236;48.058;10.632;2023-04-30T06:19:55;94927.88;;;12.51;80.41
56330;BME280;42236;48.058;10.632;2023-04-30T06:22:43;94930.44;;;12.32;80.01
56330;BME280;42236;48.058;10.632;2023-04-30T06:25:29;94932.31;;;12.44;80.24
56330;BME280;42236;48.058;10.632;2023-04-30T06:28:14;94927.22;;;12.54;79.69
56330;BME280;42236;48.058;10.632;2023-04-30T06:31:07;94922.25;;;12.28;76.32
56330;BME280;42236;48.058;10.632;2023-04-30T06:33:53;94922.28;;;12.16;77.83
56330;BME280;42236;48.058;10.632;2023-04-30T06:36:39;94928.84;;;12.03;76.25
56330;BME280;42236;48.058;10.632;2023-04-30T06:39:24;94919.06;;;11.86;77.93
56330;BME280;42236;48.058;10.632;2023-04-30T06:42:10;94913.69;;;11.61;77.32
56330;BME280;42236;48.058;10.632;2023-04-30T06:44:56;94919.91;;;11.49;78.14
56330;BME280;42236;48.058;10.632;2023-04-30T06:47:42;94922.38;;;11.54;78.19
56330;BME280;42236;48.058;10.632;2023-04-30T06:50:29;94908.19;;;11.58;78.01
56330;BME280;42236;48.058;10.632;2023-04-30T06:53:14;94915.25;;;11.74;77.73
56330;BME280;42236;48.058;10.632;2023-04-30T06:56:00;94924.03;;;11.96;76.93
56330;BME280;42236;48.058;10.632;2023-04-30T06:58:46;94925.16;;;11.70;76.75
56330;BME280;42236;48.058;10.632;2023-04-30T07:01:32;94925.63;;;11.72;77.21
56330;BME280;42236;48.058;10.632;2023-04-30T07:04:18;94920.91;;;11.69;76.52
56330;BME280;42236;48.058;10.632;2023-04-30T07:07:04;94928.78;;;11.50;77.82
56330;BME280;42236;48.058;10.632;2023-04-30T07:09:50;94928.91;;;11.66;77.70
56330;BME280;42236;48.058;10.632;2023-04-30T07:12:36;94921.69;;;11.70;76.93
56330;BME280;42236;48.058;10.632;2023-04-30T07:15:22;94919.56;;;11.63;77.47
56330;BME280;42236;48.058;10.632;2023-04-30T07:18:08;94924.28;;;11.54;77.70
56330;BME280;42236;48.058;10.632;2023-04-30T07:20:54;94923.19;;;11.55;78.06
56330;BME280;42236;48.058;10.632;2023-04-30T07:23:40;94914.25;;;11.79;77.28
56330;BME280;42236;48.058;10.632;2023-04-30T07:26:25;94917.16;;;11.99;76.14
56330;BME280;42236;48.058;10.632;2023-04-30T07:29:11;94915.09;;;12.08;76.34
56330;BME280;42236;48.058;10.632;2023-04-30T07:31:57;94915.41;;;12.19;75.77
56330;BME280;42236;48.058;10.632;2023-04-30T07:34:43;94912.31;;;12.32;74.71
56330;BME280;42236;48.058;10.632;2023-04-30T07:37:28;94901.25;;;12.37;75.41
56330;BME280;42236;48.058;10.632;2023-04-30T07:40:14;94907.31;;;12.63;75.12
56330;BME280;42236;48.058;10.632;2023-04-30T07:43:00;94901.50;;;12.76;74.39
56330;BME280;42236;48.058;10.632;2023-04-30T07:45:46;94898.59;;;12.85;74.44
56330;BME280;42236;48.058;10.632;2023-04-30T07:48:33;94900.81;;;13.11;73.19
56330;BME280;42236;48.058;10.632;2023-04-30T07:51:19;94906.81;;;13.05;72.63
56330;BME280;42236;48.058;10.632;2023-04-30T07:54:05;94908.50;;;13.09;71.67
56330;BME280;42236;48.058;10.632;2023-04-30T07:56:51;94904.13;;;12.89;70.45
56330;BME280;42236;48.058;10.632;2023-04-30T07:59:42;94900.91;;;12.83;72.31
56330;BME280;42236;48.058;10.632;2023-04-30T08:02:28;94894.84;;;12.90;72.34
56330;BME280;42236;48.058;10.632;2023-04-30T08:05:13;94897.75;;;12.81;72.58
56330;BME280;42236;48.058;10.632;2023-04-30T08:07:59;94907.16;;;12.71;73.01
56330;BME280;42236;48.058;10.632;2023-04-30T08:10:45;94903.88;;;12.94;72.53
56330;BME280;42236;48.058;10.632;2023-04-30T08:13:31;94903.34;;;13.20;72.10
56330;BME280;42236;48.058;10.632;2023-04-30T08:16:16;94908.22;;;13.14;71.62
56330;BME280;42236;48.058;10.632;2023-04-30T08:19:02;94902.81;;;13.14;70.93
56330;BME280;42236;48.058;10.632;2023-04-30T08:21:49;94892.59;;;13.23;71.74
56330;BME280;42236;48.058;10.632;2023-04-30T08:24:35;94906.56;;;13.26;71.50
56330;BME280;42236;48.058;10.632;2023-04-30T08:27:21;94898.72;;;13.20;71.05
56330;BME280;42236;48.058;10.632;2023-04-30T08:30:07;94890.63;;;13.36;70.71
56330;BME280;42236;48.058;10.632;2023-04-30T08:32:53;94896.97;;;13.28;69.79
56330;BME280;42236;48.058;10.632;2023-04-30T08:35:39;94901.84;;;12.91;70.27
56330;BME280;42236;48.058;10.632;2023-04-30T08:38:25;94896.44;;;12.91;71.07
56330;BME280;42236;48.058;10.632;2023-04-30T08:41:12;94905.19;;;13.00;69.89
56330;BME280;42236;48.058;10.632;2023-04-30T08:44:00;94906.03;;;13.04;70.68
56330;BME280;42236;48.058;10.632;2023-04-30T08:46:53;94896.09;;;13.08;70.93
56330;BME280;42236;48.058;10.632;2023-04-30T08:49:40;94896.16;;;13.12;70.29
56330;BME280;42236;48.058;10.632;2023-04-30T08:52:27;94886.31;;;13.19;69.32
56330;BME280;42236;48.058;10.632;2023-04-30T08:55:17;94899.31;;;13.45;68.33
56330;BME280;42236;48.058;10.632;2023-04-30T08:58:02;94897.81;;;13.48;68.06
56330;BME280;42236;48.058;10.632;2023-04-30T09:00:50;94888.91;;;13.63;67.98
56330;BME280;42236;48.058;10.632;2023-04-30T09:03:36;94887.25;;;13.59;68.39
56330;BME280;42236;48.058;10.632;2023-04-30T09:06:24;94890.66;;;13.56;68.12
56330;BME280;42236;48.058;10.632;2023-04-30T09:09:11;94889.34;;;13.50;67.35
56330;BME280;42236;48.058;10.632;2023-04-30T09:12:11;94896.00;;;13.52;67.05
56330;BME280;42236;48.058;10.632;2023-04-30T09:15:03;94902.28;;;13.56;64.53
56330;BME280;42236;48.058;10.632;2023-04-30T09:17:49;94900.63;;;13.68;66.65
56330;BME280;42236;48.058;10.632;2023-04-30T09:20:35;94913.28;;;13.63;66.71
56330;BME280;42236;48.058;10.632;2023-04-30T09:23:21;94900.28;;;13.53;65.37
56330;BME280;42236;48.058;10.632;2023-04-30T09:26:07;94897.91;;;13.68;66.26
56330;BME280;42236;48.058;10.632;2023-04-30T09:28:57;94898.25;;;13.66;64.98
56330;BME280;42236;48.058;10.632;2023-04-30T09:31:47;94898.88;;;13.59;63.34
56330;BME280;42236;48.058;10.632;2023-04-30T09:34:36;94901.22;;;13.96;65.13
56330;BME280;42236;48.058;10.632;2023-04-30T09:37:34;94894.22;;;13.95;61.06
56330;BME280;42236;48.058;10.632;2023-04-30T09:40:35;94904.50;;;14.25;59.43
56330;BME280;42236;48.058;10.632;2023-04-30T09:43:21;94899.75;;;14.38;61.64
56330;BME280;42236;48.058;10.632;2023-04-30T09:46:07;94902.53;;;14.41;62.15
56330;BME280;42236;48.058;10.632;2023-04-30T09:49:18;94904.13;;;14.62;60.09
56330;BME280;42236;48.058;10.632;2023-04-30T09:52:04;94894.03;;;14.85;61.56
56330;BME280;42236;48.058;10.632;2023-04-30T09:54:50;94899.94;;;14.68;61.23
56330;BME280;42236;48.058;10.632;2023-04-30T09:57:36;94890.94;;;14.64;61.42
56330;BME280;42236;48.058;10.632;2023-04-30T10:00:22;94891.53;;;14.54;60.58
56330;BME280;42236;48.058;10.632;2023-04-30T10:03:10;94890.03;;;14.37;61.04
56330;BME280;42236;48.058;10.632;2023-04-30T10:05:56;94890.81;;;14.57;61.38
56330;BME280;42236;48.058;10.632;2023-04-30T10:08:43;94891.53;;;14.54;60.83
56330;BME280;42236;48.058;10.632;2023-04-30T10:11:38;94886.09;;;14.54;59.78
56330;BME280;42236;48.058;10.632;2023-04-30T10:14:29;94886.88;;;14.54;59.48
56330;BME280;42236;48.058;10.632;2023-04-30T10:17:35;94882.41;;;14.62;58.20
56330;BME280;42236;48.058;10.632;2023-04-30T10:20:34;94873.53;;;15.11;58.07
56330;BME280;42236;48.058;10.632;2023-04-30T10:23:24;94875.44;;;15.33;58.52
56330;BME280;42236;48.058;10.632;2023-04-30T10:26:10;94876.28;;;15.14;59.25
56330;BME280;42236;48.058;10.632;2023-04-30T10:29:06;94856.81;;;15.09;58.48
56330;BME280;42236;48.058;10.632;2023-04-30T10:31:52;94866.03;;;15.04;57.36
56330;BME280;42236;48.058;10.632;2023-04-30T10:34:52;94862.59;;;15.07;57.39
56330;BME280;42236;48.058;10.632;2023-04-30T10:37:45;94858.78;;;15.35;57.77
56330;BME280;42236;48.058;10.632;2023-04-30T10:40:36;94854.97;;;15.40;57.87
56330;BME280;42236;48.058;10.632;2023-04-30T10:43:26;94859.22;;;15.67;58.03
56330;BME280;42236;48.058;10.632;2023-04-30T10:46:35;94848.56;;;15.82;56.71
56330;BME280;42236;48.058;10.632;2023-04-30T10:49:24;94858.44;;;15.67;56.72
56330;BME280;42236;48.058;10.632;2023-04-30T10:52:11;94856.63;;;15.48;57.79
56330;BME280;42236;48.058;10.632;2023-04-30T10:54:57;94850.34;;;15.44;57.89
56330;BME280;42236;48.058;10.632;2023-04-30T10:57:43;94851.84;;;15.41;57.75
56330;BME280;42236;48.058;10.632;2023-04-30T11:00:31;94863.44;;;15.34;57.71
56330;BME280;42236;48.058;10.632;2023-04-30T11:03:16;94860.44;;;15.43;58.31
56330;BME280;42236;48.058;10.632;2023-04-30T11:06:13;94848.63;;;15.32;57.79
56330;BME280;42236;48.058;10.632;2023-04-30T11:09:02;94850.84;;;15.26;58.81
56330;BME280;42236;48.058;10.632;2023-04-30T11:12:00;94851.66;;;15.53;56.72
56330;BME280;42236;48.058;10.632;2023-04-30T11:14:48;94855.94;;;15.54;57.94
56330;BME280;42236;48.058;10.632;2023-04-30T11:17:36;94857.06;;;15.76;56.73
56330;BME280;42236;48.058;10.632;2023-04-30T11:20:23;94849.41;;;15.86;56.49
56330;BME280;42236;48.058;10.632;2023-04-30T11:23:15;94857.38;;;15.45;56.33
56330;BME280;42236;48.058;10.632;2023-04-30T11:26:04;94853.69;;;15.60;57.72
56330;BME280;42236;48.058;10.632;2023-04-30T11:29:01;94839.91;;;15.72;56.90
56330;BME280;42236;48.058;10.632;2023-04-30T11:31:47;94835.31;;;15.80;57.66
56330;BME280;42236;48.058;10.632;2023-04-30T11:34:42;94841.47;;;15.73;55.95
56330;BME280;42236;48.058;10.632;2023-04-30T11:37:33;94842.69;;;15.76;56.52
56330;BME280;42236;48.058;10.632;2023-04-30T11:40:19;94824.50;;;15.84;56.58
56330;BME280;42236;48.058;10.632;2023-04-30T11:43:07;94832.31;;;15.85;55.06
56330;BME280;42236;48.058;10.632;2023-04-30T11:46:10;94827.91;;;15.77;54.28
56330;BME280;42236;48.058;10.632;2023-04-30T11:48:56;94829.84;;;15.76;55.55
56330;BME280;42236;48.058;10.632;2023-04-30T11:51:47;94825.13;;;16.04;55.34
56330;BME280;42236;48.058;10.632;2023-04-30T11:54:43;94823.44;;;15.92;54.69
56330;BME280;42236;48.058;10.632;2023-04-30T11:57:34;94831.34;;;16.04;55.60
56330;BME280;42236;48.058;10.632;2023-04-30T12:00:25;94813.56;;;15.80;54.83
56330;BME280;42236;48.058;10.632;2023-04-30T12:03:13;94811.16;;;15.71;56.07
56330;BME280;42236;48.058;10.632;2023-04-30T12:06:05;94803.06;;;15.78;55.84
56330;BME280;42236;48.058;10.632;2023-04-30T12:08:52;94819.81;;;15.81;55.39
56330;BME280;42236;48.058;10.632;2023-04-30T12:11:38;94816.34;;;15.57;55.18
56330;BME280;42236;48.058;10.632;2023-04-30T12:14:27;94813.75;;;15.38;55.45
56330;BME280;42236;48.058;10.632;2023-04-30T12:17:29;94811.88;;;15.15;56.24
56330;BME280;42236;48.058;10.632;2023-04-30T12:20:16;94801.41;;;15.44;56.75
56330;BME280;42236;48.058;10.632;2023-04-30T12:23:03;94800.69;;;15.47;55.45
56330;BME280;42236;48.058;10.632;2023-04-30T12:25:49;94798.84;;;15.54;56.66
56330;BME280;42236;48.058;10.632;2023-04-30T12:28:34;94800.97;;;15.68;56.49
56330;BME280;42236;48.058;10.632;2023-04-30T12:31:41;94787.88;;;15.77;55.76
56330;BME280;42236;48.058;10.632;2023-04-30T12:34:27;94794.78;;;16.02;56.29
56330;BME280;42236;48.058;10.632;2023-04-30T12:37:47;94792.44;;;16.00;54.68
56330;BME280;42236;48.058;10.632;2023-04-30T12:40:36;94787.25;;;15.88;55.42
56330;BME280;42236;48.058;10.632;2023-04-30T12:43:22;94781.16;;;15.98;54.70
56330;BME280;42236;48.058;10.632;2023-04-30T12:46:08;94790.53;;;16.04;54.75
56330;BME280;42236;48.058;10.632;2023-04-30T12:52:16;94774.63;;;16.06;52.53
56330;BME280;42236;48.058;10.632;2023-04-30T12:55:19;94775.81;;;15.75;53.58
56330;BME280;42236;48.058;10.632;2023-04-30T12:58:09;94773.56;;;15.81;53.75
56330;BME280;42236;48.058;10.632;2023-04-30T13:00:57;94773.25;;;15.86;54.06
56330;BME280;42236;48.058;10.632;2023-04-30T13:03:46;94780.06;;;16.06;53.77
56330;BME280;42236;48.058;10.632;2023-04-30T13:06:32;94776.53;;;16.02;53.54
56330;BME280;42236;48.058;10.632;2023-04-30T13:09:19;94761.09;;;16.13;53.82
56330;BME280;42236;48.058;10.632;2023-04-30T13:12:06;94758.38;;;16.13;53.00
56330;BME280;42236;48.058;10.632;2023-04-30T13:14:52;94752.00;;;16.36;53.80
56330;BME280;42236;48.058;10.632;2023-04-30T13:17:38;94751.63;;;16.37;52.49
56330;BME280;42236;48.058;10.632;2023-04-30T13:20:24;94751.06;;;16.21;51.74
56330;BME280;42236;48.058;10.632;2023-04-30T13:23:10;94741.31;;;16.16;53.05
56330;BME280;42236;48.058;10.632;2023-04-30T13:25:58;94747.81;;;16.08;52.87
56330;BME280;42236;48.058;10.632;2023-04-30T13:28:44;94739.41;;;16.20;53.04
56330;BME280;42236;48.058;10.632;2023-04-30T13:31:30;94752.50;;;16.11;52.46
56330;BME280;42236;48.058;10.632;2023-04-30T13:34:24;94748.09;;;15.96;51.70
56330;BME280;42236;48.058;10.632;2023-04-30T13:37:10;94755.38;;;15.88;52.79
56330;BME280;42236;48.058;10.632;2023-04-30T13:39:56;94750.97;;;16.10;53.04
56330;BME280;42236;48.058;10.632;2023-04-30T13:42:45;94755.13;;;16.38;52.60
56330;BME280;42236;48.058;10.632;2023-04-30T13:45:31;94750.59;;;16.53;52.63
56330;BME280;42236;48.058;10.632;2023-04-30T13:48:17;94747.66;;;16.72;52.10
56330;BME280;42236;48.058;10.632;2023-04-30T13:51:03;94744.06;;;16.64;52.11
56330;BME280;42236;48.058;10.632;2023-04-30T13:53:48;94740.50;;;16.53;51.74
56330;BME280;42236;48.058;10.632;2023-04-30T13:56:34;94737.63;;;16.39;52.08
56330;BME280;42236;48.058;10.632;2023-04-30T13:59:20;94735.59;;;16.29;51.71
56330;BME280;42236;48.058;10.632;2023-04-30T14:02:06;94726.09;;;16.12;52.65
56330;BME280;42236;48.058;10.632;2023-04-30T14:04:52;94733.84;;;16.10;53.13
56330;BME280;42236;48.058;10.632;2023-04-30T14:07:38;94733.00;;;16.02;53.50
56330;BME280;42236;48.058;10.632;2023-04-30T14:10:24;94731.41;;;16.01;53.22
56330;BME280;42236;48.058;10.632;2023-04-30T14:13:09;94733.09;;;16.13;53.30
56330;BME280;42236;48.058;10.632;2023-04-30T14:15:55;94732.75;;;16.14;53.87
56330;BME280;42236;48.058;10.632;2023-04-30T14:18:41;94739.94;;;16.37;53.22
56330;BME280;42236;48.058;10.632;2023-04-30T14:21:28;94743.63;;;16.55;52.99
56330;BME280;42236;48.058;10.632;2023-04-30T14:24:14;94731.78;;;16.40;53.01
56330;BME280;42236;48.058;10.632;2023-04-30T14:27:02;94729.47;;;16.39;52.37
56330;BME280;42236;48.058;10.632;2023-04-30T14:29:48;94736.59;;;16.54;53.02
56330;BME280;42236;48.058;10.632;2023-04-30T14:32:34;94733.47;;;16.52;51.69
56330;BME280;42236;48.058;10.632;2023-04-30T14:35:20;94723.25;;;16.38;51.86
56330;BME280;42236;48.058;10.632;2023-04-30T14:38:05;94724.72;;;16.32;52.29
56330;BME280;42236;48.058;10.632;2023-04-30T14:40:51;94716.13;;;16.27;52.35
56330;BME280;42236;48.058;10.632;2023-04-30T14:43:37;94712.16;;;16.20;52.71
56330;BME280;42236;48.058;10.632;2023-04-30T14:46:23;94716.00;;;16.12;51.47
56330;BME280;42236;48.058;10.632;2023-04-30T14:49:08;94715.09;;;16.01;51.99
56330;BME280;42236;48.058;10.632;2023-04-30T14:51:54;94704.47;;;15.89;52.22
56330;BME280;42236;48.058;10.632;2023-04-30T14:54:40;94705.03;;;16.05;52.41
56330;BME280;42236;48.058;10.632;2023-04-30T14:57:26;94697.44;;;16.21;52.24